sensor_id;sensor_type;location;lat;lon;timestamp;temperature;humidity
78514;SHT31;67814;51.976;5.810;2024-01-06T00:00:07;8.9;71.8
78514;SHT31;67814;51.976;5.810;2024-01-06T00:02:36;8.9;72.3
78514;SHT31;67814;51.976;5.810;2024-01-06T00:05:05;8.8;71.9
78514;SHT31;67814;51.976;5.810;2024-01-06T00:07:34;8.8;72.3
78514;SHT31;67814;51.976;5.810;2024-01-06T00:10:03;8.7;73.0
78514;SHT31;67814;51.976;5.810;2024-01-06T00:12:32;8.7;72.1
78514;SHT31;67814;51.976;5.810;2024-01-06T00:15:01;8.7;72.1
78514;SHT31;67814;51.976;5.810;2024-01-06T00:17:30;8.7;71.7
78514;SHT31;67814;51.976;5.810;2024-01-06T00:19:59;8.7;72.0
78514;SHT31;67814;51.976;5.810;2024-01-06T00:22:28;8.7;72.1
78514;SHT31;67814;51.976;5.810;2024-01-06T00:24:57;8.7;71.3
78514;SHT31;67814;51.976;5.810;2024-01-06T00:27:26;8.7;71.2
78514;SHT31;67814;51.976;5.810;2024-01-06T00:29:55;8.6;71.6
78514;SHT31;67814;51.976;5.810;2024-01-06T00:32:23;8.6;71.7
78514;SHT31;67814;51.976;5.810;2024-01-06T00:34:52;8.6;71.0
78514;SHT31;67814;51.976;5.810;2024-01-06T00:37:20;8.6;71.5
78514;SHT31;67814;51.976;5.810;2024-01-06T00:39:50;8.5;71.9
78514;SHT31;67814;51.976;5.810;2024-01-06T00:42:20;8.5;71.9
78514;SHT31;67814;51.976;5.810;2024-01-06T00:44:49;8.5;72.3
78514;SHT31;67814;51.976;5.810;2024-01-06T00:47:18;8.5;72.6
78514;SHT31;67814;51.976;5.810;2024-01-06T00:49:50;8.5;71.6
78514;SHT31;67814;51.976;5.810;2024-01-06T00:52:19;8.5;71.1
78514;SHT31;67814;51.976;5.810;2024-01-06T00:54:48;8.5;71.3
78514;SHT31;67814;51.976;5.810;2024-01-06T00:57:18;8.4;71.8
78514;SHT31;67814;51.976;5.810;2024-01-06T00:59:50;8.4;72.4
78514;SHT31;67814;51.976;5.810;2024-01-06T01:02:19;8.4;72.7
78514;SHT31;67814;51.976;5.810;2024-01-06T01:04:47;8.4;71.9
78514;SHT31;67814;51.976;5.810;2024-01-06T01:07:16;8.4;71.9
78514;SHT31;67814;51.976;5.810;2024-01-06T01:09:45;8.4;72.5
78514;SHT31;67814;51.976;5.810;2024-01-06T01:12:13;8.4;73.1
78514;SHT31;67814;51.976;5.810;2024-01-06T01:14:42;8.4;72.7
78514;SHT31;67814;51.976;5.810;2024-01-06T01:17:11;8.4;71.7
78514;SHT31;67814;51.976;5.810;2024-01-06T01:19:39;8.4;71.8
78514;SHT31;67814;51.976;5.810;2024-01-06T01:22:08;8.4;72.1
78514;SHT31;67814;51.976;5.810;2024-01-06T01:24:37;8.4;71.8
78514;SHT31;67814;51.976;5.810;2024-01-06T01:27:06;8.4;72.0
78514;SHT31;67814;51.976;5.810;2024-01-06T01:29:35;8.4;71.5
78514;SHT31;67814;51.976;5.810;2024-01-06T01:32:05;8.4;71.5
78514;SHT31;67814;51.976;5.810;2024-01-06T01:34:34;8.3;71.5
78514;SHT31;67814;51.976;5.810;2024-01-06T01:37:03;8.3;72.2
78514;SHT31;67814;51.976;5.810;2024-01-06T01:39:32;8.3;71.6
78514;SHT31;67814;51.976;5.810;2024-01-06T01:42:00;8.3;71.3
78514;SHT31;67814;51.976;5.810;2024-01-06T01:44:30;8.3;71.8
78514;SHT31;67814;51.976;5.810;2024-01-06T01:46:58;8.3;70.9
78514;SHT31;67814;51.976;5.810;2024-01-06T01:49:27;8.3;71.3
78514;SHT31;67814;51.976;5.810;2024-01-06T01:51:56;8.3;71.7
78514;SHT31;67814;51.976;5.810;2024-01-06T01:54:27;8.3;71.3
78514;SHT31;67814;51.976;5.810;2024-01-06T01:56:58;8.3;71.2
78514;SHT31;67814;51.976;5.810;2024-01-06T01:59:27;8.3;71.1
78514;SHT31;67814;51.976;5.810;2024-01-06T02:01:55;8.3;70.8
78514;SHT31;67814;51.976;5.810;2024-01-06T02:04:24;8.3;71.0
78514;SHT31;67814;51.976;5.810;2024-01-06T02:06:53;8.2;71.2
78514;SHT31;67814;51.976;5.810;2024-01-06T02:09:22;8.1;71.5
78514;SHT31;67814;51.976;5.810;2024-01-06T02:11:53;8.1;71.8
78514;SHT31;67814;51.976;5.810;2024-01-06T02:14:22;8.1;71.7
78514;SHT31;67814;51.976;5.810;2024-01-06T02:16:51;8.1;71.8
78514;SHT31;67814;51.976;5.810;2024-01-06T02:19:19;8.0;71.7
78514;SHT31;67814;51.976;5.810;2024-01-06T02:21:52;8.0;71.6
78514;SHT31;67814;51.976;5.810;2024-01-06T02:24:21;8.0;71.8
78514;SHT31;67814;51.976;5.810;2024-01-06T02:26:50;7.9;72.3
78514;SHT31;67814;51.976;5.810;2024-01-06T02:29:18;7.9;72.1
78514;SHT31;67814;51.976;5.810;2024-01-06T02:31:47;7.9;71.8
78514;SHT31;67814;51.976;5.810;2024-01-06T02:34:16;7.8;72.1
78514;SHT31;67814;51.976;5.810;2024-01-06T02:36:44;7.8;72.9
78514;SHT31;67814;51.976;5.810;2024-01-06T02:39:13;7.8;72.4
78514;SHT31;67814;51.976;5.810;2024-01-06T02:41:42;7.7;72.3
78514;SHT31;67814;51.976;5.810;2024-01-06T02:44:11;7.7;72.6
78514;SHT31;67814;51.976;5.810;2024-01-06T02:46:40;7.6;73.0
78514;SHT31;67814;51.976;5.810;2024-01-06T02:49:09;7.6;73.1
78514;SHT31;67814;51.976;5.810;2024-01-06T02:51:38;7.6;73.2
78514;SHT31;67814;51.976;5.810;2024-01-06T02:54:06;7.6;73.5
78514;SHT31;67814;51.976;5.810;2024-01-06T02:56:35;7.6;72.8
78514;SHT31;67814;51.976;5.810;2024-01-06T02:59:04;7.6;72.7
78514;SHT31;67814;51.976;5.810;2024-01-06T03:01:33;7.6;72.6
78514;SHT31;67814;51.976;5.810;2024-01-06T03:04:03;7.5;73.1
78514;SHT31;67814;51.976;5.810;2024-01-06T03:06:32;7.5;73.4
78514;SHT31;67814;51.976;5.810;2024-01-06T03:09:01;7.5;73.6
78514;SHT31;67814;51.976;5.810;2024-01-06T03:11:30;7.5;72.9
78514;SHT31;67814;51.976;5.810;2024-01-06T03:13:59;7.5;72.7
78514;SHT31;67814;51.976;5.810;2024-01-06T03:16:29;7.5;73.0
78514;SHT31;67814;51.976;5.810;2024-01-06T03:18:57;7.5;73.2
78514;SHT31;67814;51.976;5.810;2024-01-06T03:21:26;7.5;72.9
78514;SHT31;67814;51.976;5.810;2024-01-06T03:23:55;7.5;72.7
78514;SHT31;67814;51.976;5.810;2024-01-06T03:26:23;7.5;72.2
78514;SHT31;67814;51.976;5.810;2024-01-06T03:28:54;7.5;72.1
78514;SHT31;67814;51.976;5.810;2024-01-06T03:31:25;7.4;73.2
78514;SHT31;67814;51.976;5.810;2024-01-06T03:33:53;7.4;72.9
78514;SHT31;67814;51.976;5.810;2024-01-06T03:36:22;7.4;72.6
78514;SHT31;67814;51.976;5.810;2024-01-06T03:38:51;7.4;72.2
78514;SHT31;67814;51.976;5.810;2024-01-06T03:41:20;7.4;72.9
78514;SHT31;67814;51.976;5.810;2024-01-06T03:43:49;7.4;73.1
78514;SHT31;67814;51.976;5.810;2024-01-06T03:46:17;7.4;73.1
78514;SHT31;67814;51.976;5.810;2024-01-06T03:48:46;7.5;73.1
78514;SHT31;67814;51.976;5.810;2024-01-06T03:51:17;7.5;73.1
78514;SHT31;67814;51.976;5.810;2024-01-06T03:53:45;7.5;73.2
78514;SHT31;67814;51.976;5.810;2024-01-06T03:56:14;7.6;73.3
78514;SHT31;67814;51.976;5.810;2024-01-06T03:58:43;7.7;73.0
78514;SHT31;67814;51.976;5.810;2024-01-06T04:01:12;7.7;73.0
78514;SHT31;67814;51.976;5.810;2024-01-06T04:03:42;7.7;72.5
78514;SHT31;67814;51.976;5.810;2024-01-06T04:06:11;7.8;72.0
78514;SHT31;67814;51.976;5.810;2024-01-06T04:08:41;7.8;72.0
78514;SHT31;67814;51.976;5.810;2024-01-06T04:11:09;7.8;71.7
78514;SHT31;67814;51.976;5.810;2024-01-06T04:13:38;7.8;71.6
78514;SHT31;67814;51.976;5.810;2024-01-06T04:16:07;7.7;71.4
78514;SHT31;67814;51.976;5.810;2024-01-06T04:18:36;7.7;71.5
78514;SHT31;67814;51.976;5.810;2024-01-06T04:21:05;7.7;71.7
78514;SHT31;67814;51.976;5.810;2024-01-06T04:23:35;7.7;71.4
78514;SHT31;67814;51.976;5.810;2024-01-06T04:26:03;7.7;71.6
78514;SHT31;67814;51.976;5.810;2024-01-06T04:28:33;7.7;71.4
78514;SHT31;67814;51.976;5.810;2024-01-06T04:31:02;7.6;71.2
78514;SHT31;67814;51.976;5.810;2024-01-06T04:33:30;7.6;71.2
78514;SHT31;67814;51.976;5.810;2024-01-06T04:35:59;7.5;71.8
78514;SHT31;67814;51.976;5.810;2024-01-06T04:38:28;7.5;72.0
78514;SHT31;67814;51.976;5.810;2024-01-06T04:40:57;7.5;72.2
78514;SHT31;67814;51.976;5.810;2024-01-06T04:43:25;7.4;71.7
78514;SHT31;67814;51.976;5.810;2024-01-06T04:45:54;7.4;71.9
78514;SHT31;67814;51.976;5.810;2024-01-06T04:48:23;7.3;71.8
78514;SHT31;67814;51.976;5.810;2024-01-06T04:50:52;7.3;72.4
78514;SHT31;67814;51.976;5.810;2024-01-06T04:53:21;7.3;72.3
78514;SHT31;67814;51.976;5.810;2024-01-06T04:55:50;7.2;72.4
78514;SHT31;67814;51.976;5.810;2024-01-06T04:58:18;7.2;72.8
78514;SHT31;67814;51.976;5.810;2024-01-06T05:00:47;7.2;72.2
78514;SHT31;67814;51.976;5.810;2024-01-06T05:03:18;7.2;71.8
78514;SHT31;67814;51.976;5.810;2024-01-06T05:05:46;7.2;71.7
78514;SHT31;67814;51.976;5.810;2024-01-06T05:08:15;7.2;71.8
78514;SHT31;67814;51.976;5.810;2024-01-06T05:10:46;7.2;71.4
78514;SHT31;67814;51.976;5.810;2024-01-06T05:13:17;7.2;71.3
78514;SHT31;67814;51.976;5.810;2024-01-06T05:15:46;7.2;71.2
78514;SHT31;67814;51.976;5.810;2024-01-06T05:18:14;7.1;71.2
78514;SHT31;67814;51.976;5.810;2024-01-06T05:20:43;7.1;71.7
78514;SHT31;67814;51.976;5.810;2024-01-06T05:23:12;7.0;72.2
78514;SHT31;67814;51.976;5.810;2024-01-06T05:25:41;7.0;72.0
78514;SHT31;67814;51.976;5.810;2024-01-06T05:28:09;7.0;72.3
78514;SHT31;67814;51.976;5.810;2024-01-06T05:30:38;7.0;72.1
78514;SHT31;67814;51.976;5.810;2024-01-06T05:33:09;7.0;71.8
78514;SHT31;67814;51.976;5.810;2024-01-06T05:35:39;7.0;71.6
78514;SHT31;67814;51.976;5.810;2024-01-06T05:38:08;6.9;71.7
78514;SHT31;67814;51.976;5.810;2024-01-06T05:40:36;6.9;71.5
78514;SHT31;67814;51.976;5.810;2024-01-06T05:43:05;6.9;71.6
78514;SHT31;67814;51.976;5.810;2024-01-06T05:45:34;6.9;71.8
78514;SHT31;67814;51.976;5.810;2024-01-06T05:48:04;6.8;71.4
78514;SHT31;67814;51.976;5.810;2024-01-06T05:50:32;6.8;71.4
78514;SHT31;67814;51.976;5.810;2024-01-06T05:53:01;6.8;71.2
78514;SHT31;67814;51.976;5.810;2024-01-06T05:55:32;6.7;71.5
78514;SHT31;67814;51.976;5.810;2024-01-06T05:58:00;6.7;71.6
78514;SHT31;67814;51.976;5.810;2024-01-06T06:00:29;6.6;71.1
78514;SHT31;67814;51.976;5.810;2024-01-06T06:02:58;6.6;71.2
78514;SHT31;67814;51.976;5.810;2024-01-06T06:05:29;6.5;71.9
78514;SHT31;67814;51.976;5.810;2024-01-06T06:07:58;6.4;72.0
78514;SHT31;67814;51.976;5.810;2024-01-06T06:10:26;6.4;72.6
78514;SHT31;67814;51.976;5.810;2024-01-06T06:13:01;6.4;72.3
78514;SHT31;67814;51.976;5.810;2024-01-06T06:15:31;6.3;72.9
78514;SHT31;67814;51.976;5.810;2024-01-06T06:18:02;6.3;73.3
78514;SHT31;67814;51.976;5.810;2024-01-06T06:20:31;6.3;72.8
78514;SHT31;67814;51.976;5.810;2024-01-06T06:23:00;6.4;72.7
78514;SHT31;67814;51.976;5.810;2024-01-06T06:25:28;6.4;72.2
78514;SHT31;67814;51.976;5.810;2024-01-06T06:27:57;6.4;71.9
78514;SHT31;67814;51.976;5.810;2024-01-06T06:30:26;6.4;71.2
78514;SHT31;67814;51.976;5.810;2024-01-06T06:32:54;6.4;70.9
78514;SHT31;67814;51.976;5.810;2024-01-06T06:35:24;6.4;71.1
78514;SHT31;67814;51.976;5.810;2024-01-06T06:37:53;6.4;71.7
78514;SHT31;67814;51.976;5.810;2024-01-06T06:40:21;6.3;70.5
78514;SHT31;67814;51.976;5.810;2024-01-06T06:42:50;6.3;71.0
78514;SHT31;67814;51.976;5.810;2024-01-06T06:45:19;6.3;71.3
78514;SHT31;67814;51.976;5.810;2024-01-06T06:47:49;6.3;70.5
78514;SHT31;67814;51.976;5.810;2024-01-06T06:50:18;6.2;70.6
78514;SHT31;67814;51.976;5.810;2024-01-06T06:52:48;6.2;70.4
78514;SHT31;67814;51.976;5.810;2024-01-06T06:55:17;6.2;70.4
78514;SHT31;67814;51.976;5.810;2024-01-06T06:57:46;6.2;70.6
78514;SHT31;67814;51.976;5.810;2024-01-06T07:00:16;6.2;70.4
78514;SHT31;67814;51.976;5.810;2024-01-06T07:02:45;6.2;70.7
78514;SHT31;67814;51.976;5.810;2024-01-06T07:05:14;6.2;69.7
78514;SHT31;67814;51.976;5.810;2024-01-06T07:07:43;6.1;70.1
78514;SHT31;67814;51.976;5.810;2024-01-06T07:10:13;6.1;70.5
78514;SHT31;67814;51.976;5.810;2024-01-06T07:12:44;6.1;71.1
78514;SHT31;67814;51.976;5.810;2024-01-06T07:15:14;6.1;70.8
78514;SHT31;67814;51.976;5.810;2024-01-06T07:17:43;6.1;70.7
78514;SHT31;67814;51.976;5.810;2024-01-06T07:20:12;6.1;71.1
78514;SHT31;67814;51.976;5.810;2024-01-06T07:22:40;6.1;71.0
78514;SHT31;67814;51.976;5.810;2024-01-06T07:25:10;6.1;70.7
78514;SHT31;67814;51.976;5.810;2024-01-06T07:27:39;6.1;71.5
78514;SHT31;67814;51.976;5.810;2024-01-06T07:30:08;6.1;70.3
78514;SHT31;67814;51.976;5.810;2024-01-06T07:32:37;6.1;70.7
78514;SHT31;67814;51.976;5.810;2024-01-06T07:35:06;6.1;71.4
78514;SHT31;67814;51.976;5.810;2024-01-06T07:37:35;6.1;70.9
78514;SHT31;67814;51.976;5.810;2024-01-06T07:40:04;6.1;70.7
78514;SHT31;67814;51.976;5.810;2024-01-06T07:42:33;6.1;71.5
78514;SHT31;67814;51.976;5.810;2024-01-06T07:45:02;6.1;70.8
78514;SHT31;67814;51.976;5.810;2024-01-06T07:47:30;6.2;70.8
78514;SHT31;67814;51.976;5.810;2024-01-06T07:49:59;6.2;70.6
78514;SHT31;67814;51.976;5.810;2024-01-06T07:52:28;6.2;71.2
78514;SHT31;67814;51.976;5.810;2024-01-06T07:54:56;6.3;69.7
78514;SHT31;67814;51.976;5.810;2024-01-06T07:57:25;6.3;69.3
78514;SHT31;67814;51.976;5.810;2024-01-06T07:59:54;6.3;69.7
78514;SHT31;67814;51.976;5.810;2024-01-06T08:02:22;6.2;69.7
78514;SHT31;67814;51.976;5.810;2024-01-06T08:04:51;6.2;69.2
78514;SHT31;67814;51.976;5.810;2024-01-06T08:07:20;6.2;70.3
78514;SHT31;67814;51.976;5.810;2024-01-06T08:09:49;6.2;70.2
78514;SHT31;67814;51.976;5.810;2024-01-06T08:12:17;6.2;69.7
78514;SHT31;67814;51.976;5.810;2024-01-06T08:14:46;6.2;69.8
78514;SHT31;67814;51.976;5.810;2024-01-06T08:17:15;6.2;70.2
78514;SHT31;67814;51.976;5.810;2024-01-06T08:19:43;6.2;70.3
78514;SHT31;67814;51.976;5.810;2024-01-06T08:22:13;6.1;70.0
78514;SHT31;67814;51.976;5.810;2024-01-06T08:24:42;6.1;70.2
78514;SHT31;67814;51.976;5.810;2024-01-06T08:27:11;6.1;70.7
78514;SHT31;67814;51.976;5.810;2024-01-06T08:29:39;6.1;71.0
78514;SHT31;67814;51.976;5.810;2024-01-06T08:32:08;6.1;71.3
78514;SHT31;67814;51.976;5.810;2024-01-06T08:34:38;6.2;70.7
78514;SHT31;67814;51.976;5.810;2024-01-06T08:37:06;6.2;70.5
78514;SHT31;67814;51.976;5.810;2024-01-06T08:39:35;6.2;71.0
78514;SHT31;67814;51.976;5.810;2024-01-06T08:42:04;6.1;70.4
78514;SHT31;67814;51.976;5.810;2024-01-06T08:44:33;6.1;71.1
78514;SHT31;67814;51.976;5.810;2024-01-06T08:47:01;6.1;71.4
78514;SHT31;67814;51.976;5.810;2024-01-06T08:49:30;6.1;70.9
78514;SHT31;67814;51.976;5.810;2024-01-06T08:51:58;6.1;70.8
78514;SHT31;67814;51.976;5.810;2024-01-06T08:54:27;6.1;70.1
78514;SHT31;67814;51.976;5.810;2024-01-06T08:56:58;6.1;70.4
78514;SHT31;67814;51.976;5.810;2024-01-06T08:59:27;6.1;70.1
78514;SHT31;67814;51.976;5.810;2024-01-06T09:01:55;6.1;70.6
78514;SHT31;67814;51.976;5.810;2024-01-06T09:04:24;6.2;69.7
78514;SHT31;67814;51.976;5.810;2024-01-06T09:06:53;6.1;69.9
78514;SHT31;67814;51.976;5.810;2024-01-06T09:09:21;6.1;69.9
78514;SHT31;67814;51.976;5.810;2024-01-06T09:11:53;6.1;69.9
78514;SHT31;67814;51.976;5.810;2024-01-06T09:14:22;6.1;70.0
78514;SHT31;67814;51.976;5.810;2024-01-06T09:16:50;6.1;70.1
78514;SHT31;67814;51.976;5.810;2024-01-06T09:19:19;6.1;69.8
78514;SHT31;67814;51.976;5.810;2024-01-06T09:21:48;6.1;69.9
78514;SHT31;67814;51.976;5.810;2024-01-06T09:24:17;6.1;69.5
78514;SHT31;67814;51.976;5.810;2024-01-06T09:26:45;6.1;70.0
78514;SHT31;67814;51.976;5.810;2024-01-06T09:29:16;6.1;69.5
78514;SHT31;67814;51.976;5.810;2024-01-06T09:31:45;6.1;70.1
78514;SHT31;67814;51.976;5.810;2024-01-06T09:34:13;6.1;69.7
78514;SHT31;67814;51.976;5.810;2024-01-06T09:36:44;6.1;70.0
78514;SHT31;67814;51.976;5.810;2024-01-06T09:39:13;6.1;69.4
78514;SHT31;67814;51.976;5.810;2024-01-06T09:41:42;6.1;70.0
78514;SHT31;67814;51.976;5.810;2024-01-06T09:44:10;6.1;69.8
78514;SHT31;67814;51.976;5.810;2024-01-06T09:46:40;6.1;69.6
78514;SHT31;67814;51.976;5.810;2024-01-06T09:49:10;6.1;70.3
78514;SHT31;67814;51.976;5.810;2024-01-06T09:51:40;6.1;70.5
78514;SHT31;67814;51.976;5.810;2024-01-06T09:54:12;6.1;69.8
78514;SHT31;67814;51.976;5.810;2024-01-06T09:56:45;6.1;70.4
78514;SHT31;67814;51.976;5.810;2024-01-06T09:59:15;6.2;70.6
78514;SHT31;67814;51.976;5.810;2024-01-06T10:01:45;6.2;69.4
78514;SHT31;67814;51.976;5.810;2024-01-06T10:04:16;6.2;69.1
78514;SHT31;67814;51.976;5.810;2024-01-06T10:06:44;6.2;68.3
78514;SHT31;67814;51.976;5.810;2024-01-06T10:09:13;6.2;68.5
78514;SHT31;67814;51.976;5.810;2024-01-06T10:11:43;6.2;68.5
78514;SHT31;67814;51.976;5.810;2024-01-06T10:14:12;6.2;69.3
78514;SHT31;67814;51.976;5.810;2024-01-06T10:16:41;6.2;68.6
78514;SHT31;67814;51.976;5.810;2024-01-06T10:19:10;6.2;68.6
78514;SHT31;67814;51.976;5.810;2024-01-06T10:21:39;6.2;68.6
78514;SHT31;67814;51.976;5.810;2024-01-06T10:24:09;6.2;68.5
78514;SHT31;67814;51.976;5.810;2024-01-06T10:26:40;6.1;68.8
78514;SHT31;67814;51.976;5.810;2024-01-06T10:29:08;6.1;68.2
78514;SHT31;67814;51.976;5.810;2024-01-06T10:31:38;6.1;67.9
78514;SHT31;67814;51.976;5.810;2024-01-06T10:34:07;6.1;68.3
78514;SHT31;67814;51.976;5.810;2024-01-06T10:36:36;6.1;68.5
78514;SHT31;67814;51.976;5.810;2024-01-06T10:39:05;6.1;69.3
78514;SHT31;67814;51.976;5.810;2024-01-06T10:41:38;6.0;68.8
78514;SHT31;67814;51.976;5.810;2024-01-06T10:44:07;6.0;68.7
78514;SHT31;67814;51.976;5.810;2024-01-06T10:46:36;6.0;68.9
78514;SHT31;67814;51.976;5.810;2024-01-06T10:49:08;6.0;69.5
78514;SHT31;67814;51.976;5.810;2024-01-06T10:51:38;6.0;69.3
78514;SHT31;67814;51.976;5.810;2024-01-06T10:54:09;5.9;70.3
78514;SHT31;67814;51.976;5.810;2024-01-06T10:56:41;6.0;70.5
78514;SHT31;67814;51.976;5.810;2024-01-06T10:59:11;6.0;69.4
78514;SHT31;67814;51.976;5.810;2024-01-06T11:01:41;6.0;69.6
78514;SHT31;67814;51.976;5.810;2024-01-06T11:04:10;6.0;69.7
78514;SHT31;67814;51.976;5.810;2024-01-06T11:06:40;6.0;70.3
78514;SHT31;67814;51.976;5.810;2024-01-06T11:09:13;6.0;69.7
78514;SHT31;67814;51.976;5.810;2024-01-06T11:11:44;6.1;69.1
78514;SHT31;67814;51.976;5.810;2024-01-06T11:14:22;6.1;68.8
78514;SHT31;67814;51.976;5.810;2024-01-06T11:16:52;6.1;68.6
78514;SHT31;67814;51.976;5.810;2024-01-06T11:19:45;6.0;68.7
78514;SHT31;67814;51.976;5.810;2024-01-06T11:22:26;6.0;68.7
78514;SHT31;67814;51.976;5.810;2024-01-06T11:25:05;6.0;69.6
78514;SHT31;67814;51.976;5.810;2024-01-06T11:27:36;6.0;70.3
78514;SHT31;67814;51.976;5.810;2024-01-06T11:30:05;6.0;70.0
78514;SHT31;67814;51.976;5.810;2024-01-06T11:32:36;6.1;70.0
78514;SHT31;67814;51.976;5.810;2024-01-06T11:35:09;6.1;68.6
78514;SHT31;67814;51.976;5.810;2024-01-06T11:37:54;6.1;68.6
78514;SHT31;67814;51.976;5.810;2024-01-06T11:40:30;6.1;68.6
78514;SHT31;67814;51.976;5.810;2024-01-06T11:43:03;6.1;69.0
78514;SHT31;67814;51.976;5.810;2024-01-06T11:45:32;6.0;68.6
78514;SHT31;67814;51.976;5.810;2024-01-06T11:48:03;6.0;68.3
78514;SHT31;67814;51.976;5.810;2024-01-06T11:50:34;6.0;69.1
78514;SHT31;67814;51.976;5.810;2024-01-06T11:53:04;6.0;68.9
78514;SHT31;67814;51.976;5.810;2024-01-06T11:55:34;6.0;68.9
78514;SHT31;67814;51.976;5.810;2024-01-06T11:58:03;6.0;68.7
78514;SHT31;67814;51.976;5.810;2024-01-06T12:00:33;6.0;67.8
78514;SHT31;67814;51.976;5.810;2024-01-06T12:03:05;5.9;67.6
78514;SHT31;67814;51.976;5.810;2024-01-06T12:05:34;5.9;68.1
78514;SHT31;67814;51.976;5.810;2024-01-06T12:08:03;5.8;68.4
78514;SHT31;67814;51.976;5.810;2024-01-06T12:10:33;5.7;69.1
78514;SHT31;67814;51.976;5.810;2024-01-06T12:13:04;5.7;69.1
78514;SHT31;67814;51.976;5.810;2024-01-06T12:15:36;5.7;69.4
78514;SHT31;67814;51.976;5.810;2024-01-06T12:18:06;5.7;69.6
78514;SHT31;67814;51.976;5.810;2024-01-06T12:20:35;5.7;70.0
78514;SHT31;67814;51.976;5.810;2024-01-06T12:23:04;5.7;70.5
78514;SHT31;67814;51.976;5.810;2024-01-06T12:25:34;5.7;70.1
78514;SHT31;67814;51.976;5.810;2024-01-06T12:28:05;5.7;69.7
78514;SHT31;67814;51.976;5.810;2024-01-06T12:30:34;5.7;69.3
78514;SHT31;67814;51.976;5.810;2024-01-06T12:33:06;5.7;69.3
78514;SHT31;67814;51.976;5.810;2024-01-06T12:35:36;5.7;70.0
78514;SHT31;67814;51.976;5.810;2024-01-06T12:38:05;5.7;70.2
78514;SHT31;67814;51.976;5.810;2024-01-06T12:40:35;5.7;69.6
78514;SHT31;67814;51.976;5.810;2024-01-06T12:43:04;5.7;69.5
78514;SHT31;67814;51.976;5.810;2024-01-06T12:45:33;5.7;69.2
78514;SHT31;67814;51.976;5.810;2024-01-06T12:48:02;5.7;70.4
78514;SHT31;67814;51.976;5.810;2024-01-06T12:50:31;5.7;70.1
78514;SHT31;67814;51.976;5.810;2024-01-06T12:52:59;5.7;70.1
78514;SHT31;67814;51.976;5.810;2024-01-06T12:55:28;5.7;70.7
78514;SHT31;67814;51.976;5.810;2024-01-06T12:57:57;5.7;70.1
78514;SHT31;67814;51.976;5.810;2024-01-06T13:00:30;5.7;70.2
78514;SHT31;67814;51.976;5.810;2024-01-06T13:02:58;5.7;70.4
78514;SHT31;67814;51.976;5.810;2024-01-06T13:05:27;5.7;70.6
78514;SHT31;67814;51.976;5.810;2024-01-06T13:07:56;5.7;70.1
78514;SHT31;67814;51.976;5.810;2024-01-06T13:10:25;5.7;70.3
78514;SHT31;67814;51.976;5.810;2024-01-06T13:12:54;5.7;70.4
78514;SHT31;67814;51.976;5.810;2024-01-06T13:15:22;5.7;70.5
78514;SHT31;67814;51.976;5.810;2024-01-06T13:17:51;5.7;70.8
78514;SHT31;67814;51.976;5.810;2024-01-06T13:20:22;5.7;71.1
78514;SHT31;67814;51.976;5.810;2024-01-06T13:22:50;5.7;71.1
78514;SHT31;67814;51.976;5.810;2024-01-06T13:25:19;5.7;70.8
78514;SHT31;67814;51.976;5.810;2024-01-06T13:27:48;5.7;70.5
78514;SHT31;67814;51.976;5.810;2024-01-06T13:30:18;5.8;70.9
78514;SHT31;67814;51.976;5.810;2024-01-06T13:32:46;5.8;70.2
78514;SHT31;67814;51.976;5.810;2024-01-06T13:35:17;5.8;69.8
78514;SHT31;67814;51.976;5.810;2024-01-06T13:37:46;5.8;70.0
78514;SHT31;67814;51.976;5.810;2024-01-06T13:40:18;5.8;69.7
78514;SHT31;67814;51.976;5.810;2024-01-06T13:42:48;5.7;70.0
78514;SHT31;67814;51.976;5.810;2024-01-06T13:45:18;5.7;69.5
78514;SHT31;67814;51.976;5.810;2024-01-06T13:47:47;5.7;69.7
78514;SHT31;67814;51.976;5.810;2024-01-06T13:50:18;5.7;69.9
78514;SHT31;67814;51.976;5.810;2024-01-06T13:52:47;5.6;69.6
78514;SHT31;67814;51.976;5.810;2024-01-06T13:55:16;5.6;69.9
78514;SHT31;67814;51.976;5.810;2024-01-06T13:57:44;5.6;70.4
78514;SHT31;67814;51.976;5.810;2024-01-06T14:00:14;5.6;69.5
78514;SHT31;67814;51.976;5.810;2024-01-06T14:02:45;5.6;69.5
78514;SHT31;67814;51.976;5.810;2024-01-06T14:05:15;5.6;69.1
78514;SHT31;67814;51.976;5.810;2024-01-06T14:07:45;5.5;69.9
78514;SHT31;67814;51.976;5.810;2024-01-06T14:10:16;5.5;69.9
78514;SHT31;67814;51.976;5.810;2024-01-06T14:12:46;5.5;70.0
78514;SHT31;67814;51.976;5.810;2024-01-06T14:15:15;5.5;69.6
78514;SHT31;67814;51.976;5.810;2024-01-06T14:17:45;5.5;69.7
78514;SHT31;67814;51.976;5.810;2024-01-06T14:20:16;5.5;70.2
78514;SHT31;67814;51.976;5.810;2024-01-06T14:22:46;5.5;70.7
78514;SHT31;67814;51.976;5.810;2024-01-06T14:25:16;5.4;69.7
78514;SHT31;67814;51.976;5.810;2024-01-06T14:27:46;5.4;69.9
78514;SHT31;67814;51.976;5.810;2024-01-06T14:30:15;5.4;69.9
78514;SHT31;67814;51.976;5.810;2024-01-06T14:32:46;5.4;69.9
78514;SHT31;67814;51.976;5.810;2024-01-06T14:35:15;5.4;70.1
78514;SHT31;67814;51.976;5.810;2024-01-06T14:37:44;5.5;70.2
78514;SHT31;67814;51.976;5.810;2024-01-06T14:40:13;5.5;69.6
78514;SHT31;67814;51.976;5.810;2024-01-06T14:42:43;5.5;69.5
78514;SHT31;67814;51.976;5.810;2024-01-06T14:45:12;5.5;69.7
78514;SHT31;67814;51.976;5.810;2024-01-06T14:47:41;5.5;69.1
78514;SHT31;67814;51.976;5.810;2024-01-06T14:50:10;5.5;69.9
78514;SHT31;67814;51.976;5.810;2024-01-06T14:52:39;5.5;69.8
78514;SHT31;67814;51.976;5.810;2024-01-06T14:55:10;5.5;70.0
78514;SHT31;67814;51.976;5.810;2024-01-06T14:57:39;5.5;70.0
78514;SHT31;67814;51.976;5.810;2024-01-06T15:00:12;5.5;70.1
78514;SHT31;67814;51.976;5.810;2024-01-06T15:02:41;5.6;70.0
78514;SHT31;67814;51.976;5.810;2024-01-06T15:05:12;5.6;69.7
78514;SHT31;67814;51.976;5.810;2024-01-06T15:07:42;5.6;69.8
78514;SHT31;67814;51.976;5.810;2024-01-06T15:10:11;5.6;69.1
78514;SHT31;67814;51.976;5.810;2024-01-06T15:12:42;5.7;69.6
78514;SHT31;67814;51.976;5.810;2024-01-06T15:15:12;5.7;69.1
78514;SHT31;67814;51.976;5.810;2024-01-06T15:17:41;5.7;69.3
78514;SHT31;67814;51.976;5.810;2024-01-06T15:20:14;5.7;69.3
78514;SHT31;67814;51.976;5.810;2024-01-06T15:22:43;5.7;69.6
78514;SHT31;67814;51.976;5.810;2024-01-06T15:25:12;5.7;69.9
78514;SHT31;67814;51.976;5.810;2024-01-06T15:27:41;5.7;69.5
78514;SHT31;67814;51.976;5.810;2024-01-06T15:30:09;5.7;69.7
78514;SHT31;67814;51.976;5.810;2024-01-06T15:32:41;5.8;69.1
78514;SHT31;67814;51.976;5.810;2024-01-06T15:35:10;5.8;70.2
78514;SHT31;67814;51.976;5.810;2024-01-06T15:37:39;5.8;69.6
78514;SHT31;67814;51.976;5.810;2024-01-06T15:40:08;5.8;69.3
78514;SHT31;67814;51.976;5.810;2024-01-06T15:42:37;5.8;69.2
78514;SHT31;67814;51.976;5.810;2024-01-06T15:45:07;5.8;69.5
78514;SHT31;67814;51.976;5.810;2024-01-06T15:47:38;5.9;69.3
78514;SHT31;67814;51.976;5.810;2024-01-06T15:50:07;5.9;69.0
78514;SHT31;67814;51.976;5.810;2024-01-06T15:52:37;5.9;68.4
78514;SHT31;67814;51.976;5.810;2024-01-06T15:55:06;5.9;68.1
78514;SHT31;67814;51.976;5.810;2024-01-06T15:57:35;5.9;68.4
78514;SHT31;67814;51.976;5.810;2024-01-06T16:00:05;5.8;69.2
78514;SHT31;67814;51.976;5.810;2024-01-06T16:02:34;5.8;68.8
78514;SHT31;67814;51.976;5.810;2024-01-06T16:05:05;5.9;69.1
78514;SHT31;67814;51.976;5.810;2024-01-06T16:07:34;5.9;69.2
78514;SHT31;67814;51.976;5.810;2024-01-06T16:10:03;5.9;68.2
78514;SHT31;67814;51.976;5.810;2024-01-06T16:12:34;5.9;68.1
78514;SHT31;67814;51.976;5.810;2024-01-06T16:15:03;5.9;67.5
78514;SHT31;67814;51.976;5.810;2024-01-06T16:17:32;5.8;68.0
78514;SHT31;67814;51.976;5.810;2024-01-06T16:20:01;5.8;67.8
78514;SHT31;67814;51.976;5.810;2024-01-06T16:22:29;5.8;68.3
78514;SHT31;67814;51.976;5.810;2024-01-06T16:24:58;5.7;68.1
78514;SHT31;67814;51.976;5.810;2024-01-06T16:27:27;5.7;69.2
78514;SHT31;67814;51.976;5.810;2024-01-06T16:29:55;5.7;68.2